createdAt,value
2022-08-17T00:01:51.458Z,95.70
2022-08-17T00:04:19.802Z,96.30
2022-08-17T00:06:49.101Z,97.00
2022-08-17T00:09:18.972Z,97.60
2022-08-17T00:12:41.114Z,97.90
2022-08-17T00:14:36.263Z,98.10
2022-08-17T00:17:04.743Z,98.30
2022-08-17T00:19:32.824Z,98.40
2022-08-17T00:22:33.253Z,98.60
2022-08-17T00:24:50.155Z,98.70
2022-08-17T00:27:17.625Z,98.90
2022-08-17T00:29:45.794Z,99.20
2022-08-17T00:33:14.306Z,99.50
2022-08-17T00:35:05.166Z,99.50
2022-08-17T00:37:32.065Z,99.20
2022-08-17T00:39:58.923Z,99.40
2022-08-17T00:42:30.802Z,99.70
2022-08-17T00:44:58.381Z,99.90
2022-08-17T00:47:25.344Z,99.90
2022-08-17T00:49:52.317Z,99.90
2022-08-17T00:52:23.091Z,99.90
2022-08-17T00:54:53.948Z,99.90
2022-08-17T00:57:29.968Z,99.90
2022-08-17T01:00:02.115Z,99.90
2022-08-17T01:02:41.875Z,99.90
2022-08-17T01:05:18.542Z,99.90
2022-08-17T01:07:47.206Z,99.90
2022-08-17T01:10:58.194Z,99.90
2022-08-17T01:13:03.615Z,99.90
2022-08-17T01:15:33.381Z,99.90
2022-08-17T01:18:00.207Z,99.90
2022-08-17T01:20:27.392Z,99.90
2022-08-17T01:22:54.750Z,99.90
2022-08-17T01:25:22.196Z,99.90
2022-08-17T01:27:49.328Z,99.90
2022-08-17T01:30:58.596Z,99.90
2022-08-17T01:33:04.647Z,99.90
2022-08-17T01:35:31.806Z,99.90
2022-08-17T01:37:58.706Z,99.90
2022-08-17T01:40:43.113Z,99.90
2022-08-17T01:43:19.999Z,99.90
2022-08-17T01:45:49.891Z,99.90
2022-08-17T01:48:32.772Z,99.90
2022-08-17T01:51:00.165Z,99.90
2022-08-17T01:53:32.867Z,99.90
2022-08-17T01:56:05.038Z,99.90
2022-08-17T01:58:34.476Z,99.90
2022-08-17T02:01:04.652Z,99.90
2022-08-17T02:03:32.328Z,99.90
2022-08-17T02:05:59.240Z,99.90
2022-08-17T02:08:37.304Z,99.90
2022-08-17T02:11:11.229Z,99.90
2022-08-17T02:13:38.791Z,99.90
2022-08-17T02:16:05.916Z,99.90
2022-08-17T02:18:32.735Z,99.90
2022-08-17T02:20:59.956Z,99.90
2022-08-17T02:23:30.179Z,99.90
2022-08-17T02:25:59.424Z,99.90
2022-08-17T02:28:28.364Z,99.90
2022-08-17T02:31:00.719Z,99.90
2022-08-17T02:33:42.857Z,99.90
2022-08-17T02:36:12.361Z,99.90
2022-08-17T02:38:40.851Z,99.90
2022-08-17T02:41:07.823Z,99.90
2022-08-17T02:43:34.924Z,99.90
2022-08-17T02:46:02.010Z,99.90
2022-08-17T02:48:31.419Z,99.90
2022-08-17T02:50:59.405Z,99.90
2022-08-17T02:53:26.278Z,99.90
2022-08-17T02:55:53.599Z,99.90
2022-08-17T02:58:34.706Z,99.90
2022-08-17T03:01:05.345Z,99.90
2022-08-17T03:03:32.118Z,99.90
2022-08-17T03:05:58.981Z,99.90
2022-08-17T03:08:25.745Z,99.90
2022-08-17T03:10:52.575Z,99.90
2022-08-17T03:13:19.497Z,99.90
2022-08-17T03:15:47.588Z,99.90
2022-08-17T03:18:24.149Z,99.90
2022-08-17T03:20:57.512Z,99.90
2022-08-17T03:23:25.604Z,99.90
2022-08-17T03:25:54.132Z,99.90
2022-08-17T03:28:22.918Z,99.90
2022-08-17T03:30:51.256Z,99.90
2022-08-17T03:33:19.238Z,99.90
2022-08-17T03:35:46.537Z,99.90
2022-08-17T03:38:16.946Z,99.90
2022-08-17T03:40:56.488Z,99.90
2022-08-17T03:43:28.824Z,99.90
2022-08-17T03:46:28.917Z,99.90
2022-08-17T03:49:19.438Z,99.90
2022-08-17T03:52:05.065Z,99.90
2022-08-17T03:54:50.602Z,99.90
2022-08-17T03:57:17.439Z,99.90
2022-08-17T03:59:45.061Z,99.90
2022-08-17T04:02:19.009Z,99.90
2022-08-17T04:04:46.588Z,99.90
2022-08-17T04:07:13.375Z,99.90
2022-08-17T04:09:40.166Z,99.90
2022-08-17T04:12:07.056Z,99.90
2022-08-17T04:14:39.206Z,99.90
2022-08-17T04:17:26.143Z,99.90
2022-08-17T04:19:54.140Z,99.90
2022-08-17T04:22:30.424Z,99.90
2022-08-17T04:24:58.885Z,99.90
2022-08-17T04:27:25.739Z,99.90
2022-08-17T04:29:55.343Z,99.90
2022-08-17T04:33:03.665Z,99.90
2022-08-17T04:35:10.194Z,99.90
2022-08-17T04:37:36.965Z,99.90
2022-08-17T04:40:26.479Z,99.90
2022-08-17T04:43:09.500Z,99.90
2022-08-17T04:45:55.579Z,99.90
2022-08-17T04:48:33.400Z,99.90
2022-08-17T04:51:10.512Z,99.90
2022-08-17T04:53:38.069Z,99.90
2022-08-17T04:56:05.128Z,99.90
2022-08-17T04:58:32.143Z,99.90
2022-08-17T05:00:59.099Z,99.90
2022-08-17T05:03:26.443Z,99.90
2022-08-17T05:05:53.738Z,99.90
2022-08-17T05:08:21.075Z,99.90
2022-08-17T05:10:48.576Z,99.90
2022-08-17T05:13:21.511Z,99.90
2022-08-17T05:15:52.783Z,99.90
2022-08-17T05:18:19.715Z,99.90
2022-08-17T05:20:46.718Z,99.90
2022-08-17T05:23:16.873Z,99.90
2022-08-17T05:25:47.947Z,99.90
2022-08-17T05:28:17.010Z,99.90
2022-08-17T05:30:46.033Z,99.90
2022-08-17T05:33:20.794Z,99.90
2022-08-17T05:35:50.244Z,99.90
2022-08-17T05:38:19.697Z,99.90
2022-08-17T05:40:46.842Z,99.90
2022-08-17T05:43:23.006Z,99.90
2022-08-17T05:46:11.434Z,99.90
2022-08-17T05:48:41.570Z,99.70
2022-08-17T05:51:30.211Z,99.40
2022-08-17T05:54:22.267Z,98.90
2022-08-17T05:57:21.009Z,98.80
2022-08-17T06:00:06.192Z,98.50
2022-08-17T06:02:56.733Z,98.00
2022-08-17T06:05:35.156Z,97.60
2022-08-17T06:08:27.355Z,96.90
2022-08-17T06:11:10.108Z,96.20
2022-08-17T06:13:55.730Z,94.90
2022-08-17T06:16:33.071Z,94.20
2022-08-17T06:19:06.076Z,92.60
2022-08-17T06:21:37.991Z,91.10
2022-08-17T06:24:25.119Z,89.00
2022-08-17T06:26:53.726Z,83.30
2022-08-17T06:29:29.460Z,83.00
2022-08-17T06:31:57.301Z,80.80
2022-08-17T06:34:24.064Z,79.20
2022-08-17T06:37:05.973Z,78.60
2022-08-17T06:39:55.529Z,77.60
2022-08-17T06:43:05.701Z,75.80
2022-08-17T06:45:49.179Z,74.90
2022-08-17T06:48:25.175Z,72.90
2022-08-17T06:51:03.312Z,70.70
2022-08-17T06:53:42.723Z,69.50
2022-08-17T06:56:20.534Z,67.60
2022-08-17T06:58:48.309Z,65.70
2022-08-17T07:01:23.315Z,65.20
2022-08-17T07:04:06.769Z,63.80
2022-08-17T07:06:49.682Z,60.80
2022-08-17T07:09:23.223Z,61.30
2022-08-17T07:11:58.943Z,59.60
2022-08-17T07:14:45.654Z,57.80
2022-08-17T07:17:17.294Z,55.50
2022-08-17T07:19:46.248Z,54.60
2022-08-17T07:22:22.407Z,53.60
2022-08-17T07:24:59.871Z,52.80
2022-08-17T07:27:32.795Z,51.90
2022-08-17T07:30:19.282Z,51.20
2022-08-17T07:32:57.313Z,50.30
2022-08-17T07:35:31.262Z,50.70
2022-08-17T07:38:25.647Z,50.30
2022-08-17T07:41:03.023Z,50.50
2022-08-17T07:43:39.463Z,51.20
2022-08-17T07:46:38.526Z,49.30
2022-08-17T07:49:11.156Z,50.80
2022-08-17T07:51:53.897Z,50.30
2022-08-17T07:54:26.912Z,48.60
2022-08-17T07:57:03.450Z,49.90
2022-08-17T07:59:43.318Z,49.30
2022-08-17T08:02:40.661Z,48.40
2022-08-17T08:05:30.759Z,47.40
2022-08-17T08:08:18.957Z,46.60
2022-08-17T08:10:59.905Z,46.50
2022-08-17T08:13:29.624Z,46.10
2022-08-17T08:16:29.152Z,45.80
2022-08-17T08:19:00.092Z,44.80
2022-08-17T08:21:50.360Z,44.70
2022-08-17T08:24:51.467Z,43.80
2022-08-17T08:27:36.245Z,43.40
2022-08-17T08:30:10.029Z,41.30
2022-08-17T08:33:08.950Z,41.80
2022-08-17T08:36:10.976Z,41.20
2022-08-17T08:39:01.874Z,41.20
2022-08-17T08:42:15.838Z,41.30
2022-08-17T08:45:10.668Z,41.00
2022-08-17T08:48:05.416Z,40.70
2022-08-17T08:50:58.542Z,41.00
2022-08-17T08:53:58.753Z,40.80
2022-08-17T08:57:19.825Z,40.70
2022-08-17T08:59:54.166Z,40.50
2022-08-17T09:03:15.006Z,40.30
2022-08-17T09:06:33.297Z,39.90
2022-08-17T09:09:18.420Z,39.80
2022-08-17T09:12:02.238Z,39.10
2022-08-17T09:14:45.204Z,39.40
2022-08-17T09:17:35.529Z,40.30
2022-08-17T09:20:27.481Z,39.90
2022-08-17T09:23:08.027Z,39.80
2022-08-17T09:25:49.705Z,39.70
2022-08-17T09:28:24.053Z,39.20
2022-08-17T09:30:55.183Z,39.20
2022-08-17T09:33:27.044Z,39.20
2022-08-17T09:36:10.000Z,38.90
2022-08-17T09:38:57.770Z,38.30
2022-08-17T09:41:48.701Z,38.70
2022-08-17T09:44:40.543Z,39.20
2022-08-17T09:47:30.453Z,41.10
2022-08-17T09:51:03.609Z,41.10
2022-08-17T09:53:11.165Z,41.50
2022-08-17T09:56:06.538Z,41.30
2022-08-17T09:58:55.473Z,40.90
2022-08-17T10:01:36.365Z,39.90
2022-08-17T10:04:36.488Z,39.50
2022-08-17T10:07:19.407Z,38.10
2022-08-17T10:10:25.735Z,38.00
2022-08-17T10:13:22.506Z,37.50
2022-08-17T10:16:04.657Z,37.40
2022-08-17T10:18:49.949Z,37.60
2022-08-17T10:21:38.210Z,37.30
2022-08-17T10:25:21.476Z,37.70
2022-08-17T10:27:42.971Z,37.80
2022-08-17T10:30:13.835Z,38.30
2022-08-17T10:32:49.525Z,38.50
2022-08-17T10:35:25.983Z,38.60
2022-08-17T10:38:12.604Z,38.80
2022-08-17T10:41:12.255Z,38.70
2022-08-17T10:44:36.605Z,39.10
2022-08-17T10:47:14.678Z,39.20
2022-08-17T10:49:47.776Z,39.20
2022-08-17T10:52:21.804Z,39.20
2022-08-17T10:55:12.519Z,40.00
2022-08-17T10:57:46.341Z,39.30
2022-08-17T11:00:53.376Z,39.50
2022-08-17T11:03:23.719Z,39.50
2022-08-17T11:06:00.057Z,39.50
2022-08-17T11:09:06.891Z,40.00
2022-08-17T11:12:15.454Z,39.70
2022-08-17T11:15:02.086Z,40.70
2022-08-17T11:17:55.034Z,41.60
2022-08-17T11:20:21.726Z,41.70
2022-08-17T11:23:19.975Z,40.90
2022-08-17T11:25:54.541Z,40.10
2022-08-17T11:28:26.058Z,39.70
2022-08-17T11:30:57.138Z,39.70
2022-08-17T11:33:30.448Z,39.40
2022-08-17T11:36:11.790Z,39.00
2022-08-17T11:38:57.970Z,38.30
2022-08-17T11:41:49.823Z,38.40
2022-08-17T11:44:28.657Z,38.40
2022-08-17T11:47:36.149Z,39.20
2022-08-17T11:50:47.158Z,39.70
2022-08-17T11:53:37.183Z,39.60
2022-08-17T11:56:10.340Z,39.90
2022-08-17T11:58:38.846Z,40.20
2022-08-17T12:01:24.310Z,40.90
2022-08-17T12:03:58.878Z,42.20
2022-08-17T12:06:41.159Z,42.30
2022-08-17T12:09:15.952Z,43.10
2022-08-17T12:11:58.616Z,43.60
2022-08-17T12:17:40.915Z,45.40
2022-08-17T12:20:15.125Z,45.50
2022-08-17T12:22:54.770Z,45.60
2022-08-17T12:25:32.873Z,45.60
2022-08-17T12:28:06.770Z,44.60
2022-08-17T12:30:36.174Z,43.40
2022-08-17T12:33:03.131Z,42.90
2022-08-17T12:35:35.127Z,41.40
2022-08-17T12:38:04.445Z,41.10
2022-08-17T12:40:32.975Z,41.10
2022-08-17T12:43:17.888Z,40.80
2022-08-17T12:45:53.536Z,40.90
2022-08-17T12:48:26.782Z,40.40
2022-08-17T12:51:00.759Z,39.50
2022-08-17T12:53:30.991Z,38.70
2022-08-17T12:56:00.271Z,38.70
2022-08-17T12:58:32.871Z,38.80
2022-08-17T13:01:08.893Z,39.00
2022-08-17T13:03:42.933Z,39.80
2022-08-17T13:06:12.923Z,41.00
2022-08-17T13:08:48.038Z,42.30
2022-08-17T13:11:14.773Z,42.50
2022-08-17T13:13:44.565Z,42.00
2022-08-17T13:16:14.476Z,41.60
2022-08-17T13:18:42.992Z,41.20
2022-08-17T13:21:12.671Z,40.50
2022-08-17T13:23:39.528Z,40.40
2022-08-17T13:26:16.359Z,40.50
2022-08-17T13:28:51.760Z,40.40
2022-08-17T13:31:32.889Z,39.90
2022-08-17T13:34:25.361Z,40.10
2022-08-17T13:37:41.016Z,40.10
2022-08-17T13:40:09.572Z,40.20
2022-08-17T13:42:50.390Z,40.20
2022-08-17T13:45:34.926Z,40.00
2022-08-17T13:48:14.372Z,39.40
2022-08-17T13:51:06.827Z,39.40
2022-08-17T13:53:51.146Z,39.40
2022-08-17T13:56:38.784Z,38.70
2022-08-17T13:59:11.132Z,39.10
2022-08-17T14:01:53.590Z,39.20
2022-08-17T14:04:31.578Z,39.30
2022-08-17T14:07:21.707Z,39.20
2022-08-17T14:10:00.420Z,39.20
2022-08-17T14:12:30.269Z,39.50
2022-08-17T14:14:57.127Z,39.40
2022-08-17T14:17:25.375Z,39.70
2022-08-17T14:19:52.699Z,39.90
2022-08-17T14:22:31.747Z,39.90
2022-08-17T14:24:59.767Z,39.60
2022-08-17T14:27:28.111Z,39.60
2022-08-17T14:29:56.334Z,39.40
2022-08-17T14:32:28.393Z,39.50
2022-08-17T14:34:57.595Z,39.40
2022-08-17T14:37:27.982Z,39.30
2022-08-17T14:39:57.124Z,39.30
2022-08-17T14:42:26.301Z,39.30
2022-08-17T14:44:54.269Z,39.40
2022-08-17T14:47:21.162Z,39.40
2022-08-17T14:49:48.701Z,39.60
2022-08-17T14:52:21.730Z,40.00
2022-08-17T14:54:51.257Z,40.20
2022-08-17T14:57:33.959Z,40.30
2022-08-17T15:00:02.116Z,41.00
2022-08-17T15:02:30.852Z,41.70
2022-08-17T15:04:59.849Z,42.00
2022-08-17T15:07:30.867Z,41.90
2022-08-17T15:10:00.416Z,42.20
2022-08-17T15:12:32.428Z,42.20
2022-08-17T15:15:01.078Z,42.10
2022-08-17T15:17:44.206Z,42.10
2022-08-17T15:20:23.807Z,42.00
2022-08-17T15:22:55.049Z,42.10
2022-08-17T15:25:22.377Z,42.50
2022-08-17T15:27:49.794Z,42.80
2022-08-17T15:30:16.790Z,43.50
2022-08-17T15:32:50.833Z,43.90
2022-08-17T15:35:27.244Z,44.20
2022-08-17T15:37:56.577Z,44.30
2022-08-17T15:40:23.352Z,44.70
2022-08-17T15:42:51.008Z,45.10
2022-08-17T15:45:24.525Z,45.30
2022-08-17T15:47:52.624Z,45.00
2022-08-17T15:50:19.691Z,44.90
2022-08-17T15:52:47.523Z,45.30
2022-08-17T15:55:15.471Z,45.70
2022-08-17T15:57:42.460Z,45.40
2022-08-17T16:00:10.235Z,45.20
2022-08-17T16:03:13.529Z,45.20
2022-08-17T16:05:31.669Z,45.10
2022-08-17T16:07:59.777Z,45.20
2022-08-17T16:10:35.557Z,44.90
2022-08-17T16:13:04.139Z,45.10
2022-08-17T16:15:31.904Z,45.10
2022-08-17T16:17:59.462Z,45.20
2022-08-17T16:20:27.014Z,45.50
2022-08-17T16:22:54.650Z,45.40
2022-08-17T16:25:53.026Z,45.80
2022-08-17T16:28:18.143Z,45.80
2022-08-17T16:30:45.601Z,45.60
2022-08-17T16:33:13.527Z,45.80
2022-08-17T16:35:41.889Z,45.90
2022-08-17T16:38:09.584Z,46.10
2022-08-17T16:40:37.471Z,46.20
2022-08-17T16:43:10.848Z,46.20
2022-08-17T16:45:40.478Z,46.20
2022-08-17T16:48:08.961Z,46.10
2022-08-17T16:50:36.595Z,46.40
2022-08-17T16:53:10.738Z,46.60
2022-08-17T16:55:38.819Z,46.90
2022-08-17T16:58:06.948Z,47.10
2022-08-17T17:00:34.361Z,47.20
2022-08-17T17:03:20.594Z,47.30
2022-08-17T17:06:24.313Z,48.80
2022-08-17T17:09:00.515Z,49.50
2022-08-17T17:11:44.735Z,50.40
2022-08-17T17:14:20.317Z,51.50
2022-08-17T17:16:59.669Z,52.10
2022-08-17T17:19:38.217Z,53.00
2022-08-17T17:22:19.355Z,52.80
2022-08-17T17:25:10.423Z,52.50
2022-08-17T17:27:43.008Z,52.40
2022-08-17T17:30:20.789Z,51.00
2022-08-17T17:32:52.856Z,52.40
2022-08-17T17:35:32.351Z,52.50
2022-08-17T17:38:32.955Z,51.90
2022-08-17T17:41:08.678Z,51.40
2022-08-17T17:43:40.046Z,51.60
2022-08-17T17:46:26.843Z,51.90
2022-08-17T17:48:56.929Z,52.70
2022-08-17T17:52:03.568Z,52.30
2022-08-17T17:55:13.026Z,53.30
2022-08-17T17:58:20.046Z,54.20
2022-08-17T18:01:04.898Z,52.90
2022-08-17T18:04:01.330Z,53.30
2022-08-17T18:06:46.984Z,54.30
2022-08-17T18:09:53.673Z,54.60
2022-08-17T18:12:40.834Z,53.70
2022-08-17T18:15:16.910Z,53.60
2022-08-17T18:18:16.309Z,53.40
2022-08-17T18:20:53.757Z,53.70
2022-08-17T18:23:27.556Z,53.50
2022-08-17T18:25:56.180Z,53.70
2022-08-17T18:28:33.987Z,53.80
2022-08-17T18:31:06.737Z,53.70
2022-08-17T18:33:35.324Z,53.90
2022-08-17T18:36:02.377Z,54.00
2022-08-17T18:38:31.092Z,54.20
2022-08-17T18:41:05.025Z,54.30
2022-08-17T18:43:44.222Z,54.70
2022-08-17T18:46:34.989Z,54.80
2022-08-17T18:49:24.170Z,55.30
2022-08-17T18:52:21.116Z,56.20
2022-08-17T18:55:13.782Z,56.00
2022-08-17T18:57:52.465Z,55.90
2022-08-17T19:00:40.415Z,56.20
2022-08-17T19:03:16.405Z,56.70
2022-08-17T19:05:47.208Z,57.40
2022-08-17T19:08:18.863Z,56.60
2022-08-17T19:10:48.500Z,56.90
2022-08-17T19:13:25.544Z,57.10
2022-08-17T19:16:26.889Z,57.50
2022-08-17T19:19:15.411Z,57.90
2022-08-17T19:21:50.511Z,57.80
2022-08-17T19:24:20.387Z,58.10
2022-08-17T19:27:19.357Z,58.40
2022-08-17T19:30:04.018Z,58.60
2022-08-17T19:32:35.891Z,58.90
2022-08-17T19:35:05.716Z,59.10
2022-08-17T19:37:51.531Z,59.30
2022-08-17T19:40:51.822Z,59.60
2022-08-17T19:43:35.916Z,59.60
2022-08-17T19:46:27.461Z,59.80
2022-08-17T19:49:00.183Z,60.00
2022-08-17T19:51:33.986Z,60.10
2022-08-17T19:54:07.867Z,60.20
2022-08-17T19:56:55.711Z,60.50
2022-08-17T19:59:49.459Z,60.70
2022-08-17T20:02:37.661Z,60.80
2022-08-17T20:05:29.792Z,61.00
2022-08-17T20:08:13.383Z,61.20
2022-08-17T20:11:02.022Z,61.50
2022-08-17T20:13:47.238Z,61.70
2022-08-17T20:16:14.020Z,61.60
2022-08-17T20:19:09.579Z,61.60
2022-08-17T20:21:52.043Z,61.70
2022-08-17T20:24:45.376Z,61.90
2022-08-17T20:27:12.113Z,62.00
2022-08-17T20:29:57.950Z,62.10
2022-08-17T20:32:28.634Z,62.60
2022-08-17T20:35:19.330Z,62.40
2022-08-17T20:38:02.202Z,62.70
2022-08-17T20:40:54.175Z,63.10
2022-08-17T20:43:33.629Z,63.20
2022-08-17T20:46:18.852Z,63.40
2022-08-17T20:48:49.437Z,63.50
2022-08-17T20:52:01.796Z,63.40
2022-08-17T20:54:51.528Z,63.70
2022-08-17T20:57:36.411Z,63.80
2022-08-17T21:00:28.438Z,64.00
2022-08-17T21:03:50.359Z,64.10
2022-08-17T21:06:21.653Z,64.10
2022-08-17T21:08:58.806Z,64.00
2022-08-17T21:12:02.735Z,64.10
2022-08-17T21:14:40.773Z,63.80
2022-08-17T21:17:31.187Z,63.80
2022-08-17T21:20:27.571Z,63.70
2022-08-17T21:23:41.137Z,63.60
2022-08-17T21:26:23.637Z,63.60
2022-08-17T21:29:31.546Z,63.80
2022-08-17T21:31:59.739Z,64.00
2022-08-17T21:34:30.551Z,63.90
2022-08-17T21:37:20.419Z,63.80
2022-08-17T21:40:10.524Z,63.50
2022-08-17T21:42:44.517Z,63.80
2022-08-17T21:45:21.078Z,63.40
2022-08-17T21:48:10.953Z,63.50
2022-08-17T21:50:38.816Z,63.50
2022-08-17T21:53:06.333Z,63.70
2022-08-17T21:55:36.115Z,63.80
2022-08-17T21:58:14.727Z,64.00
2022-08-17T22:00:44.475Z,64.00
2022-08-17T22:03:23.828Z,64.10
2022-08-17T22:05:51.394Z,64.20
2022-08-17T22:08:22.088Z,64.10
2022-08-17T22:10:51.301Z,64.20
2022-08-17T22:13:18.093Z,64.20
2022-08-17T22:16:15.501Z,64.50
2022-08-17T22:18:53.748Z,65.30
2022-08-17T22:21:22.637Z,64.70
2022-08-17T22:24:04.958Z,64.50
2022-08-17T22:27:08.455Z,64.40
2022-08-17T22:29:57.491Z,64.10
2022-08-17T22:32:46.543Z,64.40
2022-08-17T22:35:25.651Z,63.70
2022-08-17T22:37:53.010Z,63.80
2022-08-17T22:40:33.220Z,63.60
2022-08-17T22:43:03.360Z,63.60
2022-08-17T22:45:30.389Z,63.80
2022-08-17T22:47:59.778Z,63.80
2022-08-17T22:50:29.682Z,64.10
2022-08-17T22:53:35.433Z,64.30
2022-08-17T22:56:20.804Z,64.80
2022-08-17T22:59:17.487Z,64.80
2022-08-17T23:02:06.121Z,65.30
2022-08-17T23:04:36.719Z,65.50
2022-08-17T23:07:03.567Z,65.70
2022-08-17T23:09:30.266Z,65.80
2022-08-17T23:11:58.591Z,65.80
2022-08-17T23:14:31.357Z,66.00
2022-08-17T23:17:01.875Z,66.10
2022-08-17T23:19:31.637Z,66.30
2022-08-17T23:22:01.549Z,66.20
2022-08-17T23:24:33.137Z,66.30
2022-08-17T23:26:59.912Z,66.30
2022-08-17T23:29:29.159Z,66.50
2022-08-17T23:31:59.634Z,66.70
2022-08-17T23:34:28.044Z,66.80
2022-08-17T23:36:55.960Z,66.80
2022-08-17T23:39:24.739Z,66.80
2022-08-17T23:41:56.056Z,66.70
2022-08-17T23:44:23.433Z,66.90
2022-08-17T23:46:54.274Z,67.10
2022-08-17T23:49:21.268Z,67.20
2022-08-17T23:51:48.798Z,67.30
2022-08-17T23:54:20.549Z,67.30
2022-08-17T23:56:47.517Z,67.40
2022-08-17T23:59:16.068Z,67.30
